sensor_id;sensor_type;location;lat;lon;timestamp;pressure;altitude;pressure_sealevel;temperature;humidity
30856;BME280;17570;0.000;0.000;2023-03-31T00:02:14;96873.89;;;16.67;35.24
30856;BME280;17570;0.000;0.000;2023-03-31T00:04:42;96875.86;;;16.65;34.94
30856;BME280;17570;0.000;0.000;2023-03-31T00:07:14;96862.25;;;16.62;34.89
30856;BME280;17570;0.000;0.000;2023-03-31T00:09:42;96868.63;;;16.59;35.55
30856;BME280;17570;0.000;0.000;2023-03-31T00:12:14;96865.53;;;16.55;35.19
30856;BME280;17570;0.000;0.000;2023-03-31T00:14:42;96859.62;;;16.53;35.67
30856;BME280;17570;0.000;0.000;2023-03-31T00:17:10;96863.88;;;16.54;35.82
30856;BME280;17570;0.000;0.000;2023-03-31T00:19:38;96858.63;;;16.54;35.60
30856;BME280;17570;0.000;0.000;2023-03-31T00:22:07;96866.16;;;16.49;35.31
30856;BME280;17570;0.000;0.000;2023-03-31T00:24:34;96859.45;;;16.47;35.52
30856;BME280;17570;0.000;0.000;2023-03-31T00:27:02;96862.89;;;16.47;35.51
30856;BME280;17570;0.000;0.000;2023-03-31T00:29:31;96862.89;;;16.47;35.54
30856;BME280;17570;0.000;0.000;2023-03-31T00:32:00;96854.53;;;16.44;35.56
30856;BME280;17570;0.000;0.000;2023-03-31T00:34:27;96856.33;;;16.43;35.96
30856;BME280;17570;0.000;0.000;2023-03-31T00:36:56;96851.91;;;16.44;35.72
30856;BME280;17570;0.000;0.000;2023-03-31T00:39:25;96847.16;;;16.39;35.92
30856;BME280;17570;0.000;0.000;2023-03-31T00:41:54;96838.79;;;16.36;35.92
30856;BME280;17570;0.000;0.000;2023-03-31T00:44:22;96841.27;;;16.37;35.92
30856;BME280;17570;0.000;0.000;2023-03-31T00:49:34;96829.47;;;16.33;36.19
30856;BME280;17570;0.000;0.000;2023-03-31T00:52:05;96831.75;;;16.28;36.01
30856;BME280;17570;0.000;0.000;2023-03-31T00:54:32;96827.47;;;16.27;36.29
30856;BME280;17570;0.000;0.000;2023-03-31T00:57:01;96818.66;;;16.28;36.06
30856;BME280;17570;0.000;0.000;2023-03-31T00:59:33;96815.05;;;16.29;36.24
30856;BME280;17570;0.000;0.000;2023-03-31T01:02:01;96813.89;;;16.31;37.10
30856;BME280;17570;0.000;0.000;2023-03-31T01:04:31;96807.37;;;16.27;36.27
30856;BME280;17570;0.000;0.000;2023-03-31T01:08:00;96811.76;;;16.27;36.16
30856;BME280;17570;0.000;0.000;2023-03-31T01:09:37;96814.72;;;16.24;36.19
30856;BME280;17570;0.000;0.000;2023-03-31T01:12:07;96809.45;;;16.16;36.18
30856;BME280;17570;0.000;0.000;2023-03-31T01:14:36;96800.47;;;16.18;36.27
30856;BME280;17570;0.000;0.000;2023-03-31T01:17:05;96797.18;;;16.16;36.22
30856;BME280;17570;0.000;0.000;2023-03-31T01:19:49;96791.63;;;16.19;36.42
30856;BME280;17570;0.000;0.000;2023-03-31T01:22:26;96787.21;;;16.20;36.08
30856;BME280;17570;0.000;0.000;2023-03-31T01:27:45;96780.15;;;16.12;36.82
30856;BME280;17570;0.000;0.000;2023-03-31T01:43:22;96782.94;;;16.11;36.87
30856;BME280;17570;0.000;0.000;2023-03-31T01:45:50;96775.73;;;16.13;36.30
30856;BME280;17570;0.000;0.000;2023-03-31T01:48:16;96779.84;;;16.15;36.51
30856;BME280;17570;0.000;0.000;2023-03-31T01:50:49;96785.08;;;16.15;36.23
30856;BME280;17570;0.000;0.000;2023-03-31T01:53:22;96784.26;;;16.15;36.51
30856;BME280;17570;0.000;0.000;2023-03-31T01:58:34;96791.11;;;16.07;36.49
30856;BME280;17570;0.000;0.000;2023-03-31T02:01:04;96792.40;;;16.03;36.59
30856;BME280;17570;0.000;0.000;2023-03-31T02:03:36;96784.41;;;16.05;36.81
30856;BME280;17570;0.000;0.000;2023-03-31T02:06:12;96787.84;;;16.05;36.63
30856;BME280;17570;0.000;0.000;2023-03-31T02:08:37;96790.12;;;16.08;36.86
30856;BME280;17570;0.000;0.000;2023-03-31T02:11:04;96787.67;;;16.07;36.75
30856;BME280;17570;0.000;0.000;2023-03-31T02:13:33;96790.97;;;16.09;36.70
30856;BME280;17570;0.000;0.000;2023-03-31T02:16:04;96797.66;;;16.12;36.51
30856;BME280;17570;0.000;0.000;2023-03-31T02:18:31;96789.16;;;16.10;36.61
30856;BME280;17570;0.000;0.000;2023-03-31T02:21:02;96792.73;;;16.08;36.44
30856;BME280;17570;0.000;0.000;2023-03-31T02:23:30;96788.99;;;16.11;36.46
30856;BME280;17570;0.000;0.000;2023-03-31T02:26:02;96782.77;;;16.12;36.85
30856;BME280;17570;0.000;0.000;2023-03-31T02:28:28;96789.16;;;16.10;36.38
30856;BME280;17570;0.000;0.000;2023-03-31T02:31:05;96784.57;;;16.12;36.99
30856;BME280;17570;0.000;0.000;2023-03-31T02:33:31;96770.16;;;16.07;36.91
30856;BME280;17570;0.000;0.000;2023-03-31T02:35:59;96779.00;;;16.06;37.00
30856;BME280;17570;0.000;0.000;2023-03-31T02:38:27;96781.31;;;16.10;36.66
30856;BME280;17570;0.000;0.000;2023-03-31T02:40:57;96787.86;;;16.14;36.60
30856;BME280;17570;0.000;0.000;2023-03-31T02:43:24;96780.83;;;16.14;36.56
30856;BME280;17570;0.000;0.000;2023-03-31T02:45:53;96784.09;;;16.16;36.56
30856;BME280;17570;0.000;0.000;2023-03-31T02:48:25;96793.75;;;16.16;37.16
30856;BME280;17570;0.000;0.000;2023-03-31T02:53:55;96807.01;;;16.14;36.84
30856;BME280;17570;0.000;0.000;2023-03-31T03:01:42;96829.25;;;16.10;37.51
30856;BME280;17570;0.000;0.000;2023-03-31T03:04:21;96832.48;;;16.04;38.06
30856;BME280;17570;0.000;0.000;2023-03-31T03:07:01;96839.52;;;16.03;37.21
30856;BME280;17570;0.000;0.000;2023-03-31T03:09:33;96839.70;;;16.02;37.13
30856;BME280;17570;0.000;0.000;2023-03-31T03:12:02;96849.05;;;16.04;37.71
30856;BME280;17570;0.000;0.000;2023-03-31T03:14:27;96852.00;;;16.10;37.79
30856;BME280;17570;0.000;0.000;2023-03-31T03:16:57;96859.52;;;16.13;37.63
30856;BME280;17570;0.000;0.000;2023-03-31T03:19:24;96858.88;;;16.11;37.58
30856;BME280;17570;0.000;0.000;2023-03-31T03:21:52;96861.48;;;16.11;37.22
30856;BME280;17570;0.000;0.000;2023-03-31T03:24:20;96864.11;;;16.11;37.34
30856;BME280;17570;0.000;0.000;2023-03-31T03:26:48;96868.36;;;16.12;37.87
30856;BME280;17570;0.000;0.000;2023-03-31T03:29:15;96859.52;;;16.13;37.40
30856;BME280;17570;0.000;0.000;2023-03-31T03:31:43;96850.38;;;16.17;37.61
30856;BME280;17570;0.000;0.000;2023-03-31T03:34:10;96867.41;;;16.21;36.71
30856;BME280;17570;0.000;0.000;2023-03-31T03:36:38;96858.09;;;16.26;35.88
30856;BME280;17570;0.000;0.000;2023-03-31T03:39:06;96863.83;;;16.30;35.51
30856;BME280;17570;0.000;0.000;2023-03-31T03:41:34;96858.11;;;16.35;34.30
30856;BME280;17570;0.000;0.000;2023-03-31T03:44:01;96858.62;;;16.38;34.11
30856;BME280;17570;0.000;0.000;2023-03-31T03:46:29;96865.17;;;16.50;33.11
30856;BME280;17570;0.000;0.000;2023-03-31T03:48:56;96865.05;;;16.60;33.17
30856;BME280;17570;0.000;0.000;2023-03-31T03:51:24;96860.45;;;16.62;33.87
30856;BME280;17570;0.000;0.000;2023-03-31T03:53:51;96863.58;;;16.66;33.52
30856;BME280;17570;0.000;0.000;2023-03-31T03:56:19;96858.66;;;16.71;32.97
30856;BME280;17570;0.000;0.000;2023-03-31T03:58:47;96866.71;;;16.77;32.49
30856;BME280;17570;0.000;0.000;2023-03-31T04:01:14;96860.84;;;16.83;32.52
30856;BME280;17570;0.000;0.000;2023-03-31T04:03:43;96868.22;;;16.88;32.60
30856;BME280;17570;0.000;0.000;2023-03-31T04:06:10;96872.30;;;16.91;32.96
30856;BME280;17570;0.000;0.000;2023-03-31T04:08:38;96860.65;;;17.18;34.81
30856;BME280;17570;0.000;0.000;2023-03-31T04:11:10;96848.48;;;17.33;34.59
30856;BME280;17570;0.000;0.000;2023-03-31T04:13:35;96849.62;;;17.39;34.25
30856;BME280;17570;0.000;0.000;2023-03-31T04:16:02;96850.43;;;17.39;34.26
30856;BME280;17570;0.000;0.000;2023-03-31T04:18:30;96850.28;;;17.41;33.83
30856;BME280;17570;0.000;0.000;2023-03-31T04:20:58;96843.41;;;17.40;34.00
30856;BME280;17570;0.000;0.000;2023-03-31T04:23:37;96841.74;;;17.39;33.77
30856;BME280;17570;0.000;0.000;2023-03-31T04:26:02;96854.41;;;17.35;34.59
30856;BME280;17570;0.000;0.000;2023-03-31T04:28:31;96849.30;;;17.33;34.09
30856;BME280;17570;0.000;0.000;2023-03-31T04:31:00;96837.99;;;17.33;34.05
30856;BME280;17570;0.000;0.000;2023-03-31T04:33:28;96830.12;;;17.33;34.20
30856;BME280;17570;0.000;0.000;2023-03-31T04:35:55;96823.56;;;17.29;33.97
30856;BME280;17570;0.000;0.000;2023-03-31T04:38:23;96835.72;;;17.30;34.21
30856;BME280;17570;0.000;0.000;2023-03-31T04:40:53;96825.23;;;17.30;34.34
30856;BME280;17570;0.000;0.000;2023-03-31T04:43:21;96828.98;;;17.27;34.94
30856;BME280;17570;0.000;0.000;2023-03-31T04:45:49;96826.55;;;17.26;34.93
30856;BME280;17570;0.000;0.000;2023-03-31T04:48:16;96833.59;;;17.25;34.67
30856;BME280;17570;0.000;0.000;2023-03-31T04:50:45;96834.41;;;17.26;34.56
30856;BME280;17570;0.000;0.000;2023-03-31T04:53:12;96836.22;;;17.25;34.87
30856;BME280;17570;0.000;0.000;2023-03-31T04:55:40;96842.61;;;17.23;34.56
30856;BME280;17570;0.000;0.000;2023-03-31T04:58:08;96841.61;;;17.24;34.79
30856;BME280;17570;0.000;0.000;2023-03-31T05:00:35;96820.14;;;17.20;35.78
30856;BME280;17570;0.000;0.000;2023-03-31T05:03:03;96814.89;;;17.20;35.18
30856;BME280;17570;0.000;0.000;2023-03-31T05:05:30;96809.64;;;17.20;34.96
30856;BME280;17570;0.000;0.000;2023-03-31T05:07:58;96805.88;;;17.23;35.04
30856;BME280;17570;0.000;0.000;2023-03-31T05:10:25;96814.25;;;17.18;36.77
30856;BME280;17570;0.000;0.000;2023-03-31T05:12:53;96820.31;;;17.19;36.02
30856;BME280;17570;0.000;0.000;2023-03-31T05:15:20;96806.20;;;17.20;36.29
30856;BME280;17570;0.000;0.000;2023-03-31T05:17:50;96810.00;;;17.17;35.81
30856;BME280;17570;0.000;0.000;2023-03-31T05:20:18;96804.08;;;17.15;35.60
30856;BME280;17570;0.000;0.000;2023-03-31T05:22:46;96801.46;;;17.15;35.76
30856;BME280;17570;0.000;0.000;2023-03-31T05:25:13;96802.63;;;17.13;35.70
30856;BME280;17570;0.000;0.000;2023-03-31T05:27:43;96800.83;;;17.13;35.72
30856;BME280;17570;0.000;0.000;2023-03-31T05:30:15;96799.02;;;17.14;35.85
30856;BME280;17570;0.000;0.000;2023-03-31T05:32:43;96800.01;;;17.13;35.86
30856;BME280;17570;0.000;0.000;2023-03-31T05:35:10;96782.78;;;17.10;35.82
30856;BME280;17570;0.000;0.000;2023-03-31T05:37:38;96778.36;;;17.11;36.07
30856;BME280;17570;0.000;0.000;2023-03-31T05:40:06;96777.55;;;17.10;36.10
30856;BME280;17570;0.000;0.000;2023-03-31T05:42:34;96777.22;;;17.13;37.29
30856;BME280;17570;0.000;0.000;2023-03-31T05:45:02;96765.25;;;17.11;36.00
30856;BME280;17570;0.000;0.000;2023-03-31T05:47:30;96769.34;;;17.13;36.93
30856;BME280;17570;0.000;0.000;2023-03-31T05:49:57;96767.55;;;17.14;36.47
30856;BME280;17570;0.000;0.000;2023-03-31T05:52:25;96768.53;;;17.13;36.55
30856;BME280;17570;0.000;0.000;2023-03-31T05:54:52;96774.77;;;17.12;36.81
30856;BME280;17570;0.000;0.000;2023-03-31T05:57:20;96772.16;;;17.12;36.76
30856;BME280;17570;0.000;0.000;2023-03-31T05:59:47;96775.23;;;17.15;36.65
30856;BME280;17570;0.000;0.000;2023-03-31T06:02:15;96775.59;;;17.12;37.54
30856;BME280;17570;0.000;0.000;2023-03-31T06:04:42;96777.40;;;17.12;37.28
30856;BME280;17570;0.000;0.000;2023-03-31T06:07:10;96779.17;;;17.11;37.26
30856;BME280;17570;0.000;0.000;2023-03-31T06:09:38;96779.66;;;17.15;36.66
30856;BME280;17570;0.000;0.000;2023-03-31T06:12:06;96786.39;;;17.17;36.87
30856;BME280;17570;0.000;0.000;2023-03-31T06:14:34;96779.34;;;17.18;36.72
30856;BME280;17570;0.000;0.000;2023-03-31T06:17:01;96774.73;;;17.20;37.07
30856;BME280;17570;0.000;0.000;2023-03-31T06:19:29;96776.39;;;17.21;36.39
30856;BME280;17570;0.000;0.000;2023-03-31T06:21:56;96772.28;;;17.18;36.52
30856;BME280;17570;0.000;0.000;2023-03-31T06:24:24;96772.28;;;17.18;36.47
30856;BME280;17570;0.000;0.000;2023-03-31T06:26:51;96768.52;;;17.21;36.47
30856;BME280;17570;0.000;0.000;2023-03-31T06:29:19;96773.10;;;17.19;36.85
30856;BME280;17570;0.000;0.000;2023-03-31T06:31:46;96771.30;;;17.19;36.99
30856;BME280;17570;0.000;0.000;2023-03-31T06:34:14;96779.16;;;17.19;37.22
30856;BME280;17570;0.000;0.000;2023-03-31T06:36:41;96772.78;;;17.22;36.70
30856;BME280;17570;0.000;0.000;2023-03-31T06:39:09;96773.27;;;17.25;36.38
30856;BME280;17570;0.000;0.000;2023-03-31T06:41:36;96779.15;;;17.27;36.73
30856;BME280;17570;0.000;0.000;2023-03-31T06:44:04;96775.38;;;17.30;37.22
30856;BME280;17570;0.000;0.000;2023-03-31T06:46:32;96780.45;;;17.31;36.91
30856;BME280;17570;0.000;0.000;2023-03-31T06:48:59;96776.20;;;17.30;36.59
30856;BME280;17570;0.000;0.000;2023-03-31T06:51:27;96773.58;;;17.30;36.63
30856;BME280;17570;0.000;0.000;2023-03-31T06:53:54;96773.07;;;17.35;36.85
30856;BME280;17570;0.000;0.000;2023-03-31T06:56:21;96768.45;;;17.37;36.43
30856;BME280;17570;0.000;0.000;2023-03-31T06:58:49;96769.59;;;17.34;37.05
30856;BME280;17570;0.000;0.000;2023-03-31T07:01:17;96773.07;;;17.35;36.79
30856;BME280;17570;0.000;0.000;2023-03-31T07:03:44;96774.19;;;17.41;36.86
30856;BME280;17570;0.000;0.000;2023-03-31T07:06:11;96771.20;;;17.44;36.58
30856;BME280;17570;0.000;0.000;2023-03-31T07:08:39;96764.00;;;17.46;36.51
30856;BME280;17570;0.000;0.000;2023-03-31T07:11:06;96765.94;;;17.52;36.95
30856;BME280;17570;0.000;0.000;2023-03-31T07:13:34;96758.09;;;17.91;38.72
30856;BME280;17570;0.000;0.000;2023-03-31T07:16:01;96757.27;;;18.14;38.83
30856;BME280;17570;0.000;0.000;2023-03-31T07:18:30;96754.12;;;18.18;38.32
30856;BME280;17570;0.000;0.000;2023-03-31T07:21:02;96745.09;;;18.21;37.71
30856;BME280;17570;0.000;0.000;2023-03-31T07:23:29;96736.73;;;18.17;37.47
30856;BME280;17570;0.000;0.000;2023-03-31T07:25:57;96729.71;;;18.32;37.83
30856;BME280;17570;0.000;0.000;2023-03-31T07:28:32;96734.13;;;18.55;38.69
30856;BME280;17570;0.000;0.000;2023-03-31T07:30:56;96726.38;;;18.61;37.94
30856;BME280;17570;0.000;0.000;2023-03-31T07:33:23;96729.09;;;18.68;37.30
30856;BME280;17570;0.000;0.000;2023-03-31T07:35:51;96730.06;;;18.75;36.10
30856;BME280;17570;0.000;0.000;2023-03-31T07:38:18;96728.98;;;18.84;36.30
30856;BME280;17570;0.000;0.000;2023-03-31T07:40:47;96729.07;;;18.91;35.08
30856;BME280;17570;0.000;0.000;2023-03-31T07:43:16;96719.83;;;18.95;34.39
30856;BME280;17570;0.000;0.000;2023-03-31T07:45:44;96727.09;;;19.08;35.76
30856;BME280;17570;0.000;0.000;2023-03-31T07:48:12;96729.34;;;19.11;34.25
30856;BME280;17570;0.000;0.000;2023-03-31T07:50:41;96724.55;;;19.15;34.31
30856;BME280;17570;0.000;0.000;2023-03-31T07:53:10;96724.19;;;19.18;33.74
30856;BME280;17570;0.000;0.000;2023-03-31T07:55:39;96720.55;;;19.19;33.47
30856;BME280;17570;0.000;0.000;2023-03-31T07:58:07;96704.96;;;19.17;33.28
30856;BME280;17570;0.000;0.000;2023-03-31T08:00:36;96706.66;;;19.25;33.21
30856;BME280;17570;0.000;0.000;2023-03-31T08:03:03;96700.49;;;19.32;33.11
30856;BME280;17570;0.000;0.000;2023-03-31T08:05:32;96705.66;;;19.41;32.90
30856;BME280;17570;0.000;0.000;2023-03-31T08:07:59;96702.74;;;19.50;32.78
30856;BME280;17570;0.000;0.000;2023-03-31T08:10:27;96701.47;;;19.61;32.42
30856;BME280;17570;0.000;0.000;2023-03-31T08:12:54;96701.17;;;19.71;32.26
30856;BME280;17570;0.000;0.000;2023-03-31T08:15:22;96697.23;;;19.81;32.42
30856;BME280;17570;0.000;0.000;2023-03-31T08:17:50;96689.05;;;19.91;31.92
30856;BME280;17570;0.000;0.000;2023-03-31T08:20:17;96691.94;;;19.96;31.26
30856;BME280;17570;0.000;0.000;2023-03-31T08:22:45;96689.16;;;20.04;31.41
30856;BME280;17570;0.000;0.000;2023-03-31T08:25:12;96686.04;;;20.16;31.38
30856;BME280;17570;0.000;0.000;2023-03-31T08:27:40;96684.09;;;20.24;31.10
30856;BME280;17570;0.000;0.000;2023-03-31T08:30:08;96684.95;;;20.31;31.04
30856;BME280;17570;0.000;0.000;2023-03-31T08:32:36;96683.00;;;20.40;30.82
30856;BME280;17570;0.000;0.000;2023-03-31T08:35:04;96677.77;;;20.47;30.72
30856;BME280;17570;0.000;0.000;2023-03-31T08:37:32;96682.94;;;20.55;30.92
30856;BME280;17570;0.000;0.000;2023-03-31T08:39:59;96684.63;;;20.62;30.74
30856;BME280;17570;0.000;0.000;2023-03-31T08:42:38;96683.64;;;20.70;30.39
30856;BME280;17570;0.000;0.000;2023-03-31T08:45:10;96680.05;;;20.78;30.42
30856;BME280;17570;0.000;0.000;2023-03-31T08:47:38;96674.78;;;20.78;30.35
30856;BME280;17570;0.000;0.000;2023-03-31T08:50:18;96665.91;;;20.85;30.70
30856;BME280;17570;0.000;0.000;2023-03-31T08:52:41;96672.66;;;20.95;30.51
30856;BME280;17570;0.000;0.000;2023-03-31T08:55:06;96667.41;;;21.01;30.49
30856;BME280;17570;0.000;0.000;2023-03-31T08:57:37;96656.06;;;21.07;30.37
30856;BME280;17570;0.000;0.000;2023-03-31T09:00:12;96642.11;;;21.13;30.45
30856;BME280;17570;0.000;0.000;2023-03-31T09:02:58;96652.68;;;21.20;31.08
30856;BME280;17570;0.000;0.000;2023-03-31T09:05:15;96635.66;;;21.29;29.88
30856;BME280;17570;0.000;0.000;2023-03-31T09:13:06;96603.08;;;21.50;30.51
30856;BME280;17570;0.000;0.000;2023-03-31T09:18:00;96594.37;;;21.76;30.35
30856;BME280;17570;0.000;0.000;2023-03-31T09:20:29;96586.47;;;21.83;29.49
30856;BME280;17570;0.000;0.000;2023-03-31T09:23:03;96586.25;;;21.91;29.51
30856;BME280;17570;0.000;0.000;2023-03-31T09:25:26;96582.39;;;22.00;29.86
30856;BME280;17570;0.000;0.000;2023-03-31T09:27:55;96578.53;;;22.09;29.63
30856;BME280;17570;0.000;0.000;2023-03-31T09:30:30;96567.78;;;22.18;29.84
30856;BME280;17570;0.000;0.000;2023-03-31T09:33:12;96570.63;;;22.29;29.73
30856;BME280;17570;0.000;0.000;2023-03-31T09:35:39;96563.89;;;22.40;29.91
30856;BME280;17570;0.000;0.000;2023-03-31T09:38:08;96564.89;;;22.46;29.67
30856;BME280;17570;0.000;0.000;2023-03-31T09:40:35;96563.44;;;22.56;29.38
30856;BME280;17570;0.000;0.000;2023-03-31T09:43:04;96565.28;;;22.62;28.64
30856;BME280;17570;0.000;0.000;2023-03-31T09:45:32;96554.88;;;22.68;28.77
30856;BME280;17570;0.000;0.000;2023-03-31T09:48:01;96563.59;;;22.75;28.74
30856;BME280;17570;0.000;0.000;2023-03-31T09:50:29;96560.13;;;22.81;28.90
30856;BME280;17570;0.000;0.000;2023-03-31T09:52:57;96550.97;;;22.90;28.40
30856;BME280;17570;0.000;0.000;2023-03-31T09:55:28;96547.48;;;22.96;28.24
30856;BME280;17570;0.000;0.000;2023-03-31T09:57:55;96543.58;;;22.99;27.99
30856;BME280;17570;0.000;0.000;2023-03-31T10:00:24;96549.89;;;23.04;28.00
30856;BME280;17570;0.000;0.000;2023-03-31T10:02:53;96547.02;;;23.06;27.27
30856;BME280;17570;0.000;0.000;2023-03-31T10:05:29;96551.09;;;23.08;28.20
30856;BME280;17570;0.000;0.000;2023-03-31T10:08:16;96557.20;;;23.09;26.44
30856;BME280;17570;0.000;0.000;2023-03-31T10:11:23;96564.97;;;23.04;26.51
30856;BME280;17570;0.000;0.000;2023-03-31T10:13:13;96568.25;;;22.93;26.85
30856;BME280;17570;0.000;0.000;2023-03-31T10:15:42;96563.77;;;22.93;26.76
30856;BME280;17570;0.000;0.000;2023-03-31T10:18:13;96557.84;;;22.98;27.06
30856;BME280;17570;0.000;0.000;2023-03-31T10:20:43;96555.36;;;23.09;27.82
30856;BME280;17570;0.000;0.000;2023-03-31T10:23:29;96558.19;;;23.14;27.68
30856;BME280;17570;0.000;0.000;2023-03-31T10:25:53;96558.36;;;23.20;27.65
30856;BME280;17570;0.000;0.000;2023-03-31T10:28:20;96549.39;;;23.21;27.07
30856;BME280;17570;0.000;0.000;2023-03-31T10:30:54;96549.89;;;23.42;27.49
30856;BME280;17570;0.000;0.000;2023-03-31T10:33:22;96544.28;;;23.57;27.42
30856;BME280;17570;0.000;0.000;2023-03-31T10:35:48;96543.20;;;23.72;26.75
30856;BME280;17570;0.000;0.000;2023-03-31T10:38:21;96537.53;;;23.93;28.30
30856;BME280;17570;0.000;0.000;2023-03-31T10:40:50;96534.70;;;24.13;26.81
30856;BME280;17570;0.000;0.000;2023-03-31T10:43:28;96534.92;;;24.36;28.17
30856;BME280;17570;0.000;0.000;2023-03-31T10:45:57;96535.31;;;24.58;29.27
30856;BME280;17570;0.000;0.000;2023-03-31T10:48:30;96525.27;;;24.79;28.78
30856;BME280;17570;0.000;0.000;2023-03-31T10:50:59;96521.25;;;25.06;28.73
30856;BME280;17570;0.000;0.000;2023-03-31T10:53:27;96505.20;;;25.31;28.41
30856;BME280;17570;0.000;0.000;2023-03-31T10:56:00;96512.42;;;25.54;28.51
30856;BME280;17570;0.000;0.000;2023-03-31T11:03:49;96502.34;;;26.10;28.41
30856;BME280;17570;0.000;0.000;2023-03-31T11:06:27;96505.91;;;26.39;28.09
30856;BME280;17570;0.000;0.000;2023-03-31T11:16:22;96486.73;;;27.46;26.07
30856;BME280;17570;0.000;0.000;2023-03-31T11:18:59;96482.81;;;27.65;25.46
30856;BME280;17570;0.000;0.000;2023-03-31T11:21:34;96477.96;;;27.96;25.34
30856;BME280;17570;0.000;0.000;2023-03-31T11:24:20;96471.14;;;28.22;25.03
30856;BME280;17570;0.000;0.000;2023-03-31T11:26:58;96466.83;;;28.38;24.46
30856;BME280;17570;0.000;0.000;2023-03-31T11:30:12;96475.34;;;28.57;24.27
30856;BME280;17570;0.000;0.000;2023-03-31T11:35:37;96474.66;;;28.66;24.13
30856;BME280;17570;0.000;0.000;2023-03-31T12:33:02;96417.42;;;26.32;26.44
30856;BME280;17570;0.000;0.000;2023-03-31T16:11:12;96276.11;;;22.62;30.65
30856;BME280;17570;0.000;0.000;2023-03-31T16:13:41;96270.95;;;23.60;29.55
30856;BME280;17570;0.000;0.000;2023-03-31T16:16:10;96278.03;;;24.75;27.32
30856;BME280;17570;0.000;0.000;2023-03-31T16:18:39;96276.15;;;25.29;26.30
30856;BME280;17570;0.000;0.000;2023-03-31T16:21:07;96275.32;;;25.52;26.20
30856;BME280;17570;0.000;0.000;2023-03-31T16:23:40;96269.06;;;25.58;26.03
30856;BME280;17570;0.000;0.000;2023-03-31T16:26:06;96272.17;;;25.55;26.13
30856;BME280;17570;0.000;0.000;2023-03-31T16:28:35;96266.75;;;25.50;26.15
30856;BME280;17570;0.000;0.000;2023-03-31T16:31:03;96260.53;;;25.44;26.28
30856;BME280;17570;0.000;0.000;2023-03-31T16:33:50;96265.49;;;25.41;26.74
30856;BME280;17570;0.000;0.000;2023-03-31T16:36:00;96272.34;;;25.37;26.92
30856;BME280;17570;0.000;0.000;2023-03-31T16:38:28;96278.00;;;25.29;27.25
30856;BME280;17570;0.000;0.000;2023-03-31T16:40:56;96288.97;;;25.21;27.54
30856;BME280;17570;0.000;0.000;2023-03-31T16:43:25;96287.00;;;25.16;27.66
30856;BME280;17570;0.000;0.000;2023-03-31T16:45:53;96295.30;;;25.08;27.59
30856;BME280;17570;0.000;0.000;2023-03-31T16:48:22;96298.50;;;24.98;28.20
30856;BME280;17570;0.000;0.000;2023-03-31T16:50:54;96301.95;;;24.87;28.00
30856;BME280;17570;0.000;0.000;2023-03-31T16:53:23;96305.17;;;24.77;28.34
30856;BME280;17570;0.000;0.000;2023-03-31T16:55:53;96306.98;;;24.65;28.40
30856;BME280;17570;0.000;0.000;2023-03-31T16:58:20;96305.92;;;24.54;29.10
30856;BME280;17570;0.000;0.000;2023-03-31T17:00:50;96302.53;;;24.47;29.01
30856;BME280;17570;0.000;0.000;2023-03-31T17:03:18;96305.53;;;24.39;29.06
30856;BME280;17570;0.000;0.000;2023-03-31T17:05:47;96298.05;;;24.29;29.71
30856;BME280;17570;0.000;0.000;2023-03-31T17:08:17;96297.78;;;24.19;29.38
30856;BME280;17570;0.000;0.000;2023-03-31T17:10:52;96297.95;;;24.06;29.85
30856;BME280;17570;0.000;0.000;2023-03-31T17:13:20;96301.13;;;23.96;29.01
30856;BME280;17570;0.000;0.000;2023-03-31T17:15:48;96312.49;;;23.85;29.45
30856;BME280;17570;0.000;0.000;2023-03-31T17:18:15;96304.40;;;23.80;29.80
30856;BME280;17570;0.000;0.000;2023-03-31T17:20:43;96304.45;;;23.73;30.14
30856;BME280;17570;0.000;0.000;2023-03-31T17:23:10;96306.78;;;23.63;30.99
30856;BME280;17570;0.000;0.000;2023-03-31T17:25:38;96311.13;;;23.57;30.29
30856;BME280;17570;0.000;0.000;2023-03-31T17:28:05;96313.48;;;23.47;30.12
30856;BME280;17570;0.000;0.000;2023-03-31T17:30:34;96310.88;;;23.40;30.49
30856;BME280;17570;0.000;0.000;2023-03-31T17:33:01;96313.60;;;23.34;30.29
30856;BME280;17570;0.000;0.000;2023-03-31T17:35:29;96310.19;;;23.27;30.89
30856;BME280;17570;0.000;0.000;2023-03-31T17:37:57;96316.98;;;23.23;30.58
30856;BME280;17570;0.000;0.000;2023-03-31T17:40:24;96312.37;;;23.11;31.50
30856;BME280;17570;0.000;0.000;2023-03-31T17:42:52;96315.12;;;22.98;31.51
30856;BME280;17570;0.000;0.000;2023-03-31T17:45:19;96316.80;;;22.93;30.81
30856;BME280;17570;0.000;0.000;2023-03-31T17:47:47;96319.06;;;22.89;31.36
30856;BME280;17570;0.000;0.000;2023-03-31T17:50:14;96317.26;;;22.83;31.81
30856;BME280;17570;0.000;0.000;2023-03-31T17:52:42;96323.20;;;22.78;31.31
30856;BME280;17570;0.000;0.000;2023-03-31T17:55:10;96316.70;;;22.74;30.77
30856;BME280;17570;0.000;0.000;2023-03-31T17:57:37;96314.28;;;22.73;30.60
30856;BME280;17570;0.000;0.000;2023-03-31T18:00:06;96316.15;;;22.65;31.96
30856;BME280;17570;0.000;0.000;2023-03-31T18:02:38;96307.85;;;22.62;30.36
30856;BME280;17570;0.000;0.000;2023-03-31T18:05:06;96306.66;;;22.58;31.21
30856;BME280;17570;0.000;0.000;2023-03-31T18:07:34;96307.07;;;22.55;30.71
30856;BME280;17570;0.000;0.000;2023-03-31T18:10:02;96310.36;;;22.50;32.51
30856;BME280;17570;0.000;0.000;2023-03-31T18:12:31;96308.98;;;22.41;34.42
30856;BME280;17570;0.000;0.000;2023-03-31T18:14:59;96299.05;;;22.36;34.29
30856;BME280;17570;0.000;0.000;2023-03-31T18:17:28;96297.84;;;22.32;31.41
30856;BME280;17570;0.000;0.000;2023-03-31T18:19:56;96303.18;;;22.26;32.84
30856;BME280;17570;0.000;0.000;2023-03-31T18:22:24;96310.49;;;22.24;31.15
30856;BME280;17570;0.000;0.000;2023-03-31T18:24:52;96308.88;;;22.23;31.37
30856;BME280;17570;0.000;0.000;2023-03-31T18:27:20;96310.94;;;22.21;31.74
30856;BME280;17570;0.000;0.000;2023-03-31T18:29:47;96296.52;;;22.17;31.48
30856;BME280;17570;0.000;0.000;2023-03-31T18:32:15;96298.77;;;22.13;31.31
30856;BME280;17570;0.000;0.000;2023-03-31T18:34:42;96298.77;;;22.13;32.55
30856;BME280;17570;0.000;0.000;2023-03-31T18:37:10;96300.79;;;22.11;31.08
30856;BME280;17570;0.000;0.000;2023-03-31T18:39:37;96293.27;;;22.08;31.21
30856;BME280;17570;0.000;0.000;2023-03-31T18:42:05;96299.99;;;22.04;31.19
30856;BME280;17570;0.000;0.000;2023-03-31T18:44:33;96301.24;;;22.01;31.10